Time;durP1;ratioP1;P1;durP2;ratioP2;P2;SDS_P1;SDS_P2;PMS_P1;PMS_P2;Temp;Humidity;BMP_temperature;BMP_pressure;BME280_temperature;BME280_humidity;BME280_pressure;Samples;Min_cycle;Max_cycle;Signal;HPM_P1;HPM_P2
2023/07/08 00:00:26;;;;;;;23.17;16.75;;;;;;;19.05;100.00;63970.66;5126046;28;20202;-80
2023/07/08 00:02:54;;;;;;;19.60;16.48;;;;;;;19.01;100.00;63963.91;5119253;28;20226;-79
2023/07/08 00:05:24;;;;;;;19.20;15.85;;;;;;;19.05;100.00;63970.16;5129465;28;20207;-80
2023/07/08 00:07:53;;;;;;;17.13;15.27;;;;;;;18.99;100.00;63966.47;5129106;28;20214;-80
2023/07/08 00:10:23;;;;;;;18.50;16.60;;;;;;;18.89;100.00;63953.47;5122928;28;20222;-82
2023/07/08 00:12:52;;;;;;;20.33;15.45;;;;;;;18.73;100.00;63934.72;5129722;28;20222;-81
2023/07/08 00:15:22;;;;;;;20.45;17.13;;;;;;;18.77;100.00;63943.53;5129750;28;20486;-80
2023/07/08 00:17:50;;;;;;;20.90;17.30;;;;;;;18.71;100.00;63937.28;5110687;28;20203;-83
2023/07/08 00:20:22;;;;;;;20.60;15.90;;;;;;;18.72;100.00;63938.84;5118810;28;20211;-80
2023/07/08 00:22:49;;;;;;;18.48;16.15;;;;;;;18.73;100.00;63934.19;5127364;28;20229;-80
2023/07/08 00:25:19;;;;;;;20.88;16.67;;;;;;;18.65;100.00;63928.97;5130164;28;20190;-79
2023/07/08 00:27:46;;;;;;;23.88;18.65;;;;;;;18.59;100.00;63925.28;5126273;28;20205;-79
2023/07/08 00:30:22;;;;;;;27.45;16.90;;;;;;;18.63;100.00;63931.53;5129342;28;20206;-79
2023/07/08 00:32:53;;;;;;;19.55;17.30;;;;;;;18.62;100.00;63923.25;5129364;28;20186;-78
2023/07/08 00:35:22;;;;;;;24.52;18.58;;;;;;;18.64;100.00;63930.00;5129256;28;20225;-78
2023/07/08 00:37:52;;;;;;;21.05;17.92;;;;;;;18.62;100.00;63923.25;5126683;28;20507;-80
2023/07/08 00:40:22;;;;;;;20.80;17.10;;;;;;;18.65;100.00;63931.03;5132407;28;20195;-79
2023/07/08 00:42:50;;;;;;;21.92;17.98;;;;;;;18.63;100.00;63929.47;5128728;28;20531;-81
2023/07/08 00:45:27;;;;;;;19.40;16.85;;;;;;;18.64;100.00;63927.41;5126309;28;20244;-78
2023/07/08 00:47:56;;;;;;;19.95;17.38;;;;;;;18.62;100.00;63922.75;5110685;28;20191;-79
2023/07/08 00:50:23;;;;;;;19.55;17.55;;;;;;;18.62;100.00;63928.41;5110181;28;20263;-80
2023/07/08 00:52:50;;;;;;;22.55;17.67;;;;;;;18.61;100.00;63926.84;5113415;28;20465;-80
2023/07/08 00:55:18;;;;;;;19.90;16.80;;;;;;;18.57;100.00;63923.22;5130241;28;20198;-79
2023/07/08 00:57:47;;;;;;;22.25;17.05;;;;;;;18.54;100.00;63914.94;5129973;28;20202;-78
2023/07/08 01:00:17;;;;;;;20.92;16.60;;;;;;;18.56;100.00;63919.59;5133104;28;20480;-80
2023/07/08 01:02:49;;;;;;;19.98;16.65;;;;;;;18.57;100.00;63917.53;5133398;28;20230;-81
2023/07/08 01:05:20;;;;;;;19.02;16.80;;;;;;;18.48;100.00;63908.69;5126303;28;20202;-80
2023/07/08 01:07:53;;;;;;;18.42;16.52;;;;;;;18.47;100.00;63910.22;5133382;28;20199;-77
2023/07/08 01:10:31;;;;;;;19.15;17.15;;;;;;;18.51;100.00;63916.44;5133789;28;20229;-78
2023/07/08 01:13:07;;;;;;;17.85;16.05;;;;;;;18.48;100.00;63911.25;5131725;28;20228;-80
2023/07/08 01:15:40;;;;;;;19.52;16.33;;;;;;;18.54;100.00;63919.56;5125915;28;20587;-80
2023/07/08 01:18:09;;;;;;;19.20;16.48;;;;;;;18.44;100.00;63909.66;5121415;28;20201;-78
2023/07/08 01:20:37;;;;;;;20.63;16.17;;;;;;;18.46;100.00;63908.66;5132999;28;20236;-80
2023/07/08 01:23:06;;;;;;;21.40;16.30;;;;;;;18.43;100.00;63903.97;5125469;28;20231;-78
2023/07/08 01:25:34;;;;;;;17.27;14.93;;;;;;;18.37;100.00;63902.34;5117824;28;20199;-78
2023/07/08 01:28:02;;;;;;;20.02;16.88;;;;;;;18.47;100.00;63912.78;5132075;28;20386;-78
2023/07/08 01:30:31;;;;;;;18.02;16.20;;;;;;;18.47;100.00;63907.09;5132104;28;20232;-78
2023/07/08 01:33:02;;;;;;;22.52;16.52;;;;;;;18.37;100.00;63894.63;5129740;28;20234;-79
2023/07/08 01:35:30;;;;;;;17.45;15.73;;;;;;;18.34;100.00;63897.16;5133497;28;20194;-78
2023/07/08 01:38:00;;;;;;;18.05;16.35;;;;;;;18.34;100.00;63891.50;5129877;28;20223;-79
2023/07/08 01:40:31;;;;;;;19.77;15.50;;;;;;;18.36;100.00;63901.31;5131676;28;20198;-81
2023/07/08 01:42:59;;;;;;;19.98;15.23;;;;;;;18.36;100.00;63901.81;5132437;28;20217;-78
2023/07/08 01:45:30;;;;;;;16.33;14.63;;;;;;;18.28;100.00;63887.81;5125523;28;20228;-77
2023/07/08 01:48:00;;;;;;;17.55;15.68;;;;;;;18.32;100.00;63894.56;5121087;28;20195;-79
2023/07/08 01:50:29;;;;;;;17.35;14.98;;;;;;;18.34;100.00;63899.22;5134020;28;20204;-79
2023/07/08 01:52:59;;;;;;;16.40;14.70;;;;;;;18.34;100.00;63904.91;5118920;28;20523;-78
2023/07/08 01:55:28;;;;;;;17.80;15.98;;;;;;;18.35;100.00;63898.22;5130203;28;20203;-81
2023/07/08 01:57:56;;;;;;;17.50;15.48;;;;;;;18.33;100.00;63898.19;5129655;28;20190;-82
2023/07/08 02:00:23;;;;;;;21.58;16.02;;;;;;;18.35;100.00;63897.69;5131443;28;20191;-82
2023/07/08 02:02:51;;;;;;;20.20;15.13;;;;;;;18.44;100.00;63907.09;5128662;28;20199;-80
2023/07/08 02:05:19;;;;;;;14.38;12.98;;;;;;;18.38;100.00;63903.91;5131459;28;20198;-78
2023/07/08 02:07:46;;;;;;;17.50;15.77;;;;;;;18.36;100.00;63891.50;5132157;28;20195;-80
2023/07/08 02:10:14;;;;;;;16.13;14.55;;;;;;;18.47;100.00;63915.38;5131495;28;20270;-79
2023/07/08 02:12:42;;;;;;;16.33;14.75;;;;;;;18.44;100.00;63909.66;5129422;28;20284;-80
2023/07/08 02:15:11;;;;;;;17.52;15.65;;;;;;;18.48;100.00;63913.31;5127158;28;20202;-78
2023/07/08 02:17:38;;;;;;;18.42;14.30;;;;;;;18.43;100.00;63908.63;5130674;28;20236;-80
2023/07/08 02:20:08;;;;;;;16.38;14.63;;;;;;;18.48;100.00;63905.56;5133925;28;20248;-77
2023/07/08 02:22:36;;;;;;;14.23;12.63;;;;;;;18.38;100.00;63903.38;5129527;28;20236;-80
2023/07/08 02:25:03;;;;;;;16.10;14.40;;;;;;;18.46;100.00;63909.19;5117478;28;20222;-79
2023/07/08 02:27:31;;;;;;;16.08;13.65;;;;;;;18.42;100.00;63908.09;5130929;28;20210;-78
2023/07/08 02:29:58;;;;;;;14.68;13.23;;;;;;;18.25;100.00;63890.38;5131372;28;20199;-79
2023/07/08 02:32:26;;;;;;;13.93;12.55;;;;;;;18.36;100.00;63898.75;5129656;28;20227;-80
2023/07/08 02:34:53;;;;;;;14.07;12.77;;;;;;;18.37;100.00;63897.72;5132184;28;20209;-79
2023/07/08 02:37:20;;;;;;;14.07;12.15;;;;;;;18.34;100.00;63894.06;5130800;28;20246;-77
2023/07/08 02:39:47;;;;;;;13.13;11.77;;;;;;;18.34;100.00;63897.16;5129751;28;20220;-79
2023/07/08 02:42:15;;;;;;;14.50;12.63;;;;;;;18.35;100.00;63895.09;5126962;28;20215;-78
2023/07/08 02:44:42;;;;;;;13.68;12.35;;;;;;;18.37;100.00;63897.72;5130360;28;20246;-80
2023/07/08 02:47:09;;;;;;;11.73;10.73;;;;;;;18.33;100.00;63898.19;5130958;28;20214;-80
2023/07/08 02:49:38;;;;;;;13.60;12.30;;;;;;;18.37;100.00;63897.19;5132293;28;20226;-82
2023/07/08 02:52:05;;;;;;;12.82;11.55;;;;;;;18.32;100.00;63892.50;5127066;28;20244;-81
2023/07/08 02:54:32;;;;;;;13.25;11.90;;;;;;;18.41;100.00;63903.97;5111913;28;20213;-81
2023/07/08 02:57:00;;;;;;;13.65;12.25;;;;;;;18.38;100.00;63903.91;5114994;28;20213;-83
2023/07/08 02:59:28;;;;;;;13.32;11.43;;;;;;;18.31;100.00;63894.03;5129470;28;20263;-80
2023/07/08 03:01:55;;;;;;;12.93;11.65;;;;;;;18.29;100.00;63894.03;5132367;28;20259;-79
2023/07/08 03:04:25;;;;;;;13.85;12.35;;;;;;;18.30;100.00;63892.47;5131143;28;20280;-80
2023/07/08 03:06:54;;;;;;;13.45;12.05;;;;;;;18.27;100.00;63889.34;5118106;28;20261;-79
2023/07/08 03:09:21;;;;;;;17.77;12.20;;;;;;;18.21;100.00;63890.81;5117841;28;20360;-81
2023/07/08 03:11:49;;;;;;;13.48;12.18;;;;;;;18.27;100.00;63889.34;5130103;28;20236;-79
2023/07/08 03:14:16;;;;;;;16.35;13.60;;;;;;;18.17;100.00;63881.53;5127304;28;20199;-80
2023/07/08 03:16:44;;;;;;;13.63;12.38;;;;;;;18.23;100.00;63882.59;5129773;28;20246;-80
2023/07/08 03:19:14;;;;;;;13.32;12.02;;;;;;;18.22;100.00;63884.16;5118777;28;20398;-80
2023/07/08 03:21:41;;;;;;;14.52;10.93;;;;;;;18.26;100.00;63891.41;5120111;28;20216;-79
2023/07/08 03:24:12;;;;;;;12.90;11.63;;;;;;;18.26;100.00;63888.81;5124311;28;20274;-80
2023/07/08 03:26:39;;;;;;;12.60;10.52;;;;;;;18.29;100.00;63891.94;5122820;28;20215;-80
2023/07/08 03:29:07;;;;;;;13.38;11.27;;;;;;;18.36;100.00;63901.31;5129256;28;20380;-78
2023/07/08 03:31:34;;;;;;;12.80;11.60;;;;;;;18.37;100.00;63899.78;5131335;28;20245;-80
2023/07/08 03:34:00;;;;;;;12.60;11.30;;;;;;;18.43;100.00;63903.47;5129569;28;20262;-80
2023/07/08 03:36:27;;;;;;;11.98;10.82;;;;;;;18.53;100.00;63913.91;5128925;28;20241;-78
2023/07/08 03:38:56;;;;;;;12.45;11.10;;;;;;;18.54;100.00;63920.09;5132114;28;20204;-78
2023/07/08 03:41:25;;;;;;;11.82;10.82;;;;;;;18.59;100.00;63930.44;5129509;28;20249;-79
2023/07/08 03:43:53;;;;;;;11.60;9.77;;;;;;;18.65;100.00;63921.25;5130101;28;20232;-80
2023/07/08 03:46:22;;;;;;;10.20;9.23;;;;;;;18.67;100.00;63933.66;5129915;28;20210;-80
2023/07/08 03:48:49;;;;;;;9.95;9.00;;;;;;;18.64;100.00;63933.09;5131737;28;20236;-81
2023/07/08 03:51:23;;;;;;;11.23;10.05;;;;;;;18.71;100.00;63932.63;5134223;28;20226;-78
2023/07/08 03:53:51;;;;;;;9.95;9.02;;;;;;;18.68;100.00;63931.56;5129651;28;20402;-79
2023/07/08 03:56:18;;;;;;;10.73;8.50;;;;;;;18.72;100.00;63938.84;5127421;28;20228;-80
2023/07/08 03:58:47;;;;;;;9.68;8.68;;;;;;;18.75;100.00;63941.44;5129942;28;20195;-80
2023/07/08 04:01:16;;;;;;;9.05;8.25;;;;;;;18.78;100.00;63944.56;5128607;28;20449;-80
2023/07/08 04:03:44;;;;;;;12.18;9.30;;;;;;;18.83;100.00;63945.16;5128067;28;20245;-81
2023/07/08 04:06:12;;;;;;;9.10;8.18;;;;;;;18.84;100.00;63948.25;5131677;28;20210;-81
2023/07/08 04:08:42;;;;;;;9.90;8.85;;;;;;;18.89;100.00;63951.41;5129937;28;20202;-79
2023/07/08 04:11:12;;;;;;;10.52;7.60;;;;;;;18.92;100.00;63954.00;5126363;28;20573;-79
2023/07/08 04:13:39;;;;;;;9.95;8.60;;;;;;;19.08;100.00;63968.13;5128665;28;20194;-80
2023/07/08 04:16:09;;;;;;;8.73;8.02;;;;;;;19.13;100.00;63973.31;5125984;28;20214;-79
2023/07/08 04:18:37;;;;;;;7.88;7.28;;;;;;;19.15;100.00;63983.16;5130338;28;20202;-81
2023/07/08 04:21:04;;;;;;;8.00;7.25;;;;;;;19.23;100.00;63989.44;5128683;28;20402;-80
2023/07/08 04:23:31;;;;;;;8.32;7.50;;;;;;;19.28;100.00;63994.13;5129360;28;20209;-81
2023/07/08 04:25:58;;;;;;;8.07;7.38;;;;;;;19.26;100.00;63992.03;5129902;28;20252;-81
2023/07/08 04:28:25;;;;;;;8.55;7.75;;;;;;;19.30;100.00;63993.66;5120324;28;20512;-81
2023/07/08 04:30:52;;;;;;;8.55;7.93;;;;;;;19.30;100.00;63999.34;5121126;28;20218;-79
2023/07/08 04:33:21;;;;;;;9.27;8.32;;;;;;;19.13;100.00;63976.44;5131426;28;20206;-81
2023/07/08 04:35:48;;;;;;;8.73;8.02;;;;;;;19.21;100.00;63989.94;5135982;28;20288;-79
2023/07/08 04:38:19;;;;;;;9.98;9.00;;;;;;;19.22;100.00;63988.38;5134510;28;20223;-81
2023/07/08 04:40:46;;;;;;;9.88;9.02;;;;;;;19.19;100.00;63985.25;5132178;28;20218;-79
2023/07/08 04:43:14;;;;;;;10.10;9.20;;;;;;;19.07;100.00;63970.16;5129872;28;20195;-80
2023/07/08 04:45:44;;;;;;;9.90;9.10;;;;;;;19.14;100.00;63974.88;5132684;28;20234;-80
2023/07/08 04:48:14;;;;;;;10.52;9.50;;;;;;;19.04;100.00;63967.03;5128848;28;20195;-78
2023/07/08 04:50:46;;;;;;;10.93;9.45;;;;;;;19.05;100.00;63970.66;5130457;28;20274;-80
2023/07/08 04:53:13;;;;;;;8.93;8.20;;;;;;;19.21;100.00;63989.94;5133857;28;20203;-81
2023/07/08 04:55:44;;;;;;;10.30;9.38;;;;;;;19.30;100.00;63999.34;5133143;28;20218;-79
2023/07/08 04:58:11;;;;;;;8.98;8.07;;;;;;;19.52;100.00;64021.75;5132429;28;20195;-81
2023/07/08 05:00:38;;;;;;;8.68;7.97;;;;;;;19.73;100.00;64043.13;5128694;28;20282;-79
2023/07/08 05:03:06;;;;;;;9.50;8.60;;;;;;;19.83;98.91;64048.41;5136577;28;20212;-77
2023/07/08 05:05:33;;;;;;;8.85;8.05;;;;;;;19.73;99.39;64043.66;5132552;28;20219;-80
2023/07/08 05:08:02;;;;;;;9.05;7.75;;;;;;;19.76;99.36;64043.69;5129324;28;20194;-78
2023/07/08 05:10:29;;;;;;;9.05;8.30;;;;;;;19.68;100.00;64035.34;5133151;28;20267;-80
2023/07/08 05:12:56;;;;;;;9.38;8.43;;;;;;;19.67;100.00;64034.31;5133504;28;20514;-81
2023/07/08 05:15:23;;;;;;;8.43;7.70;;;;;;;19.54;100.00;64021.78;5131520;28;20197;-77
2023/07/08 05:17:52;;;;;;;8.85;8.15;;;;;;;19.62;100.00;64032.19;5135152;28;20187;-79
2023/07/08 05:20:20;;;;;;;9.20;8.30;;;;;;;19.79;100.00;64046.81;5113235;28;20203;-80
2023/07/08 05:22:47;;;;;;;8.93;8.15;;;;;;;19.95;96.93;64066.09;5112062;28;20209;-80
2023/07/08 05:25:16;;;;;;;8.13;7.32;;;;;;;20.05;95.83;64076.53;5120684;28;20527;-79
2023/07/08 05:27:43;;;;;;;7.40;6.70;;;;;;;19.80;96.64;64047.84;5131633;28;20220;-79
2023/07/08 05:30:20;;;;;;;7.68;7.18;;;;;;;19.99;95.58;64067.69;5132944;28;20232;-80
2023/07/08 05:32:47;;;;;;;7.70;7.07;;;;;;;19.88;95.85;64056.22;5134905;28;20190;-82
2023/07/08 05:35:14;;;;;;;9.70;6.32;;;;;;;19.81;97.29;64052.00;5121649;28;20240;-79
2023/07/08 05:37:46;;;;;;;7.38;6.88;;;;;;;19.83;98.58;64051.50;5120858;28;20199;-78
2023/07/08 05:40:15;;;;;;;7.65;6.93;;;;;;;19.91;95.85;64054.69;5122785;28;20191;-80
2023/07/08 05:42:42;;;;;;;9.13;6.95;;;;;;;19.74;94.63;64044.72;5120246;28;20199;-81
2023/07/08 05:45:10;;;;;;;7.70;7.00;;;;;;;19.97;95.07;64068.69;5121815;28;20238;-79
2023/07/08 05:47:40;;;;;;;6.95;6.45;;;;;;;20.05;94.86;64079.63;5127628;28;20851;-80
2023/07/08 05:50:09;;;;;;;9.60;6.72;;;;;;;20.10;93.84;64079.16;5134852;28;20283;-78
2023/07/08 05:52:36;;;;;;;7.63;6.93;;;;;;;20.07;95.75;64073.97;5131628;28;20455;-80
2023/07/08 05:55:03;;;;;;;7.00;6.40;;;;;;;20.14;96.29;64083.84;5129428;28;20202;-76
2023/07/08 05:57:32;;;;;;;7.30;6.70;;;;;;;20.30;94.61;64102.63;5133305;28;20245;-78
2023/07/08 05:59:59;;;;;;;7.47;6.70;;;;;;;20.40;93.10;64110.47;5131511;28;20250;-79
2023/07/08 06:02:26;;;;;;;6.65;6.25;;;;;;;20.59;89.14;64130.84;5115766;28;20223;-80
2023/07/08 06:04:53;;;;;;;8.93;6.57;;;;;;;20.65;89.08;64131.94;5125171;28;20291;-79
2023/07/08 06:07:20;;;;;;;7.00;6.38;;;;;;;20.67;89.37;64136.59;5131537;28;20256;-81
2023/07/08 06:09:48;;;;;;;6.80;6.40;;;;;;;20.83;88.39;64152.28;5125839;28;20203;-81
2023/07/08 06:12:15;;;;;;;6.63;6.05;;;;;;;20.80;87.25;64152.25;5112876;28;20238;-78
2023/07/08 06:14:43;;;;;;;6.80;6.20;;;;;;;20.54;88.11;64122.50;5133131;28;20201;-79
2023/07/08 06:17:10;;;;;;;6.25;5.75;;;;;;;20.27;92.95;64097.44;5135807;28;20274;-79
2023/07/08 06:19:38;;;;;;;6.07;5.43;;;;;;;20.35;90.50;64107.84;5129807;28;20215;-81
2023/07/08 06:22:06;;;;;;;6.88;6.18;;;;;;;20.40;91.28;64116.19;5126792;28;20223;-79
2023/07/08 06:24:33;;;;;;;6.28;5.78;;;;;;;20.11;93.72;64080.72;5133071;28;20250;-81
2023/07/08 06:27:00;;;;;;;7.45;6.13;;;;;;;20.11;94.78;64083.31;5132124;28;20218;-81
2023/07/08 06:29:27;;;;;;;8.07;6.82;;;;;;;20.19;95.35;64091.69;5133903;28;20191;-81
2023/07/08 06:31:56;;;;;;;7.00;6.40;;;;;;;20.35;93.11;64107.84;5130742;28;20222;-81
2023/07/08 06:34:23;;;;;;;7.53;6.82;;;;;;;20.45;91.19;64116.22;5133730;28;20195;-80
2023/07/08 06:36:51;;;;;;;7.05;5.82;;;;;;;20.52;90.99;64126.13;5132382;28;20243;-80
2023/07/08 06:39:19;;;;;;;7.40;6.80;;;;;;;20.32;92.75;64102.66;5130681;28;20220;-82
2023/07/08 06:41:47;;;;;;;6.95;6.35;;;;;;;20.40;90.63;64107.91;5128332;28;20222;-82
2023/07/08 06:44:14;;;;;;;14.07;6.72;;;;;;;20.22;93.20;64089.66;5131303;28;20260;-83
2023/07/08 06:46:42;;;;;;;5.50;4.97;;;;;;;20.28;91.08;64095.38;5127022;28;20215;-81
2023/07/08 06:49:12;;;;;;;6.07;5.57;;;;;;;20.55;87.72;64123.56;5120028;28;20217;-79
2023/07/08 06:51:39;;;;;;;6.35;5.15;;;;;;;20.48;89.21;64121.94;5131463;28;20262;-83
2023/07/08 06:54:11;;;;;;;6.53;5.70;;;;;;;20.80;85.62;64154.81;5131359;28;20191;-81
2023/07/08 06:56:39;;;;;;;6.43;5.65;;;;;;;20.94;85.70;64168.91;5134639;28;20282;-81
2023/07/08 06:59:06;;;;;;;6.57;5.63;;;;;;;21.04;84.08;64174.19;5123262;28;20194;-79
2023/07/08 07:01:33;;;;;;;7.07;5.20;;;;;;;20.97;81.39;64172.56;5131912;28;20250;-82
2023/07/08 07:04:01;;;;;;;6.32;5.72;;;;;;;21.20;82.48;64194.03;5135262;28;20199;-81
2023/07/08 07:06:29;;;;;;;6.05;4.80;;;;;;;20.86;82.04;64155.41;5129583;28;20226;-81
2023/07/08 07:08:57;;;;;;;7.18;5.63;;;;;;;20.93;81.58;64167.88;5132012;28;20265;-81
2023/07/08 07:11:23;;;;;;;7.22;5.70;;;;;;;21.20;77.34;64188.84;5130671;28;20211;-80
2023/07/08 07:13:51;;;;;;;6.72;5.88;;;;;;;21.47;75.90;64221.69;5123614;28;20203;-81
2023/07/08 07:16:18;;;;;;;6.78;6.22;;;;;;;21.60;74.68;64235.28;5120145;28;20226;-82
2023/07/08 07:18:46;;;;;;;6.20;5.68;;;;;;;21.56;74.70;64231.63;5133850;28;20201;-81
2023/07/08 07:21:13;;;;;;;7.43;6.82;;;;;;;21.40;77.51;64214.91;5129591;28;20269;-83
2023/07/08 07:23:41;;;;;;;6.78;6.18;;;;;;;21.46;76.59;64223.25;5126923;28;20471;-83
2023/07/08 07:26:08;;;;;;;7.28;6.55;;;;;;;21.82;73.24;64255.16;5121833;28;20230;-81
2023/07/08 07:28:36;;;;;;;7.53;6.93;;;;;;;21.94;73.43;64270.31;5134021;28;20255;-82
2023/07/08 07:31:07;;;;;;;7.15;6.50;;;;;;;22.11;68.57;64288.06;5129193;28;20228;-80
2023/07/08 07:33:35;;;;;;;6.63;6.03;;;;;;;21.99;70.54;64275.53;5132277;28;20194;-80
2023/07/08 07:36:02;;;;;;;6.28;5.80;;;;;;;21.65;73.43;64240.50;5128558;28;20278;-78
2023/07/08 07:38:29;;;;;;;7.45;6.82;;;;;;;21.92;74.76;64268.75;5131161;27;20408;-80
2023/07/08 07:40:59;;;;;;;9.10;6.82;;;;;;;21.96;70.29;64275.53;5130666;28;20333;-79
2023/07/08 07:43:27;;;;;;;6.70;6.00;;;;;;;22.31;70.75;64309.50;5123820;28;20263;-80
2023/07/08 07:45:56;;;;;;;6.70;5.95;;;;;;;22.48;66.37;64327.28;5128740;28;20249;-81
2023/07/08 07:48:24;;;;;;;7.10;6.50;;;;;;;22.33;66.13;64308.47;5109946;28;20203;-79
2023/07/08 07:50:52;;;;;;;6.65;6.05;;;;;;;22.33;66.07;64313.66;5131184;28;20222;-82
2023/07/08 07:53:19;;;;;;;5.45;5.05;;;;;;;22.02;68.72;64279.19;5127937;28;20202;-80
2023/07/08 07:55:56;;;;;;;6.35;5.85;;;;;;;21.87;70.46;64260.41;5132268;28;20325;-83
2023/07/08 07:58:25;;;;;;;6.45;5.97;;;;;;;21.72;70.10;64250.94;5128642;28;20224;-78
2023/07/08 08:00:52;;;;;;;7.60;6.75;;;;;;;21.91;72.42;64272.34;5117154;28;20219;-77
2023/07/08 08:03:20;;;;;;;6.28;5.68;;;;;;;22.01;72.59;64280.22;5111956;28;20207;-80
2023/07/08 08:05:48;;;;;;;5.05;4.65;;;;;;;21.55;71.80;64232.66;5124682;28;20233;-80
2023/07/08 08:08:15;;;;;;;6.05;5.45;;;;;;;21.42;72.04;64217.00;5127323;28;20201;-80
2023/07/08 08:10:43;;;;;;;6.28;5.72;;;;;;;21.79;69.89;64263.44;5126781;28;20229;-79
2023/07/08 08:13:11;;;;;;;7.32;5.43;;;;;;;21.78;70.31;64254.63;5129663;28;20198;-80
2023/07/08 08:15:40;;;;;;;6.03;5.53;;;;;;;21.91;70.08;64264.59;5128292;28;20219;-79
2023/07/08 08:18:09;;;;;;;6.45;5.88;;;;;;;21.94;71.53;64267.72;5131679;28;20191;-78
2023/07/08 08:20:39;;;;;;;6.47;6.00;;;;;;;22.05;70.29;64284.41;5118992;28;20231;-78
2023/07/08 08:23:10;;;;;;;4.70;4.40;;;;;;;21.78;69.19;64252.03;5110928;28;20488;-79
2023/07/08 08:25:38;;;;;;;6.25;5.68;;;;;;;21.70;69.09;64243.16;5124551;28;20233;-83
2023/07/08 08:28:05;;;;;;;6.25;5.65;;;;;;;21.95;66.95;64271.88;5128186;28;20199;-80
2023/07/08 08:30:33;;;;;;;6.07;5.57;;;;;;;21.81;67.94;64257.25;5130886;28;20250;-77
2023/07/08 08:33:03;;;;;;;5.50;5.10;;;;;;;21.90;68.07;64266.13;5131426;28;20183;-79
2023/07/08 08:35:30;;;;;;;6.25;5.78;;;;;;;21.51;70.51;64229.00;5116201;28;20202;-81
2023/07/08 08:38:02;;;;;;;4.97;4.57;;;;;;;21.53;71.72;64225.91;5122221;28;20219;-82
2023/07/08 08:40:32;;;;;;;5.93;5.53;;;;;;;21.75;74.04;64256.16;5129309;28;20194;-80
2023/07/08 08:43:14;;;;;;;6.13;5.47;;;;;;;21.90;72.66;64268.72;5128552;28;20191;-82
2023/07/08 08:45:58;;;;;;;5.78;5.25;;;;;;;22.17;71.11;64294.88;5131328;28;20230;-80
2023/07/08 08:48:31;;;;;;;6.65;6.05;;;;;;;22.13;69.45;64290.16;5124693;28;20205;-78
2023/07/08 08:51:04;;;;;;;7.30;6.35;;;;;;;22.18;71.02;64297.97;5130124;28;20233;-80
2023/07/08 08:53:32;;;;;;;6.10;5.70;;;;;;;22.24;70.63;64301.66;5130216;28;20319;-82
2023/07/08 08:56:06;;;;;;;7.13;5.63;;;;;;;22.30;68.62;64305.34;5120113;28;20218;-81
2023/07/08 08:58:44;;;;;;;6.40;5.25;;;;;;;22.24;67.33;64301.66;5131261;28;20218;-80
2023/07/08 09:01:14;;;;;;;6.65;6.03;;;;;;;22.39;68.04;64323.06;5131491;28;20226;-78
2023/07/08 09:03:50;;;;;;;5.70;5.30;;;;;;;22.49;69.08;64327.78;5129855;28;20472;-81
2023/07/08 09:06:21;;;;;;;6.82;6.22;;;;;;;22.19;69.27;64293.84;5133323;28;20260;-80
2023/07/08 09:08:50;;;;;;;5.80;5.35;;;;;;;22.28;69.48;64306.38;5130412;28;20198;-81
2023/07/08 09:11:28;;;;;;;6.60;5.88;;;;;;;21.92;70.68;64268.75;5116832;28;20265;-81
2023/07/08 09:13:55;;;;;;;6.70;5.25;;;;;;;21.94;72.09;64270.31;5129520;28;20202;-77
2023/07/08 09:16:34;;;;;;;5.88;5.45;;;;;;;22.11;70.22;64282.88;5136767;28;20231;-80
2023/07/08 09:19:07;;;;;;;5.20;4.70;;;;;;;22.15;69.00;64294.84;5116072;28;20195;-77
2023/07/08 09:21:42;;;;;;;5.65;5.15;;;;;;;22.42;67.72;64320.47;5131307;28;20230;-77
2023/07/08 09:24:17;;;;;;;5.63;5.22;;;;;;;22.65;67.83;64344.53;5133081;28;20205;-77
2023/07/08 09:26:47;;;;;;;6.03;5.53;;;;;;;22.78;66.49;64358.13;5131888;28;20252;-78
2023/07/08 09:29:13;;;;;;;5.43;4.93;;;;;;;22.84;65.79;64361.81;5132128;28;20199;-78
2023/07/08 09:31:42;;;;;;;5.10;4.60;;;;;;;22.91;65.05;64371.72;5125684;28;20215;-79
2023/07/08 09:34:14;;;;;;;10.45;5.43;;;;;;;22.92;63.23;64372.78;5131046;28;20214;-78
2023/07/08 09:36:44;;;;;;;6.65;5.20;;;;;;;23.01;64.26;64382.19;5132724;28;20247;-81
2023/07/08 09:39:13;;;;;;;5.47;5.07;;;;;;;23.00;62.46;64383.22;5129512;28;20234;-79
2023/07/08 09:41:44;;;;;;;5.53;5.13;;;;;;;22.93;62.07;64374.34;5119052;28;20252;-78
2023/07/08 09:44:25;;;;;;;5.72;5.32;;;;;;;22.95;62.55;64375.91;5128676;28;20199;-81
2023/07/08 09:46:52;;;;;;;5.80;5.38;;;;;;;22.84;62.42;64364.41;5131907;28;20263;-80
2023/07/08 09:49:25;;;;;;;6.13;5.72;;;;;;;22.92;63.80;64372.25;5130959;28;20416;-79
2023/07/08 09:51:53;;;;;;;6.28;5.70;;;;;;;22.88;65.70;64369.09;5120418;28;20235;-79
2023/07/08 09:54:22;;;;;;;6.32;5.85;;;;;;;22.87;63.48;64368.06;5117259;28;20251;-78
2023/07/08 09:56:57;;;;;;;5.90;5.38;;;;;;;22.72;64.49;64351.88;5123995;28;20265;-79
2023/07/08 09:59:32;;;;;;;5.53;5.18;;;;;;;22.94;61.79;64380.06;5126427;28;20209;-79
2023/07/08 10:02:02;;;;;;;5.55;5.15;;;;;;;23.17;61.56;64401.00;5131854;28;20240;-78
2023/07/08 10:04:31;;;;;;;4.70;4.38;;;;;;;23.26;60.25;64410.94;5130334;28;20201;-81
2023/07/08 10:07:00;;;;;;;5.28;4.88;;;;;;;23.12;61.59;64393.69;5131458;28;20234;-79
2023/07/08 10:09:27;;;;;;;5.38;4.97;;;;;;;23.26;61.70;64410.94;5130815;28;20224;-78
2023/07/08 10:12:00;;;;;;;5.55;5.15;;;;;;;23.47;60.61;64432.41;5118361;28;20219;-81
2023/07/08 10:14:31;;;;;;;5.07;4.65;;;;;;;23.51;59.99;64434.50;5129635;28;20205;-77
2023/07/08 10:17:00;;;;;;;5.32;4.95;;;;;;;23.55;60.52;64438.16;5125539;28;20229;-78
2023/07/08 10:19:27;;;;;;;4.60;4.20;;;;;;;23.49;59.30;64434.50;5121335;28;20202;-79
2023/07/08 10:22:12;;;;;;;4.63;4.32;;;;;;;23.63;60.57;64444.47;5122653;28;20460;-78
2023/07/08 10:24:52;;;;;;;4.07;3.78;;;;;;;23.49;58.72;64434.50;5129187;28;20243;-80
2023/07/08 10:27:33;;;;;;;4.95;4.55;;;;;;;23.49;59.29;64434.50;5125041;28;20237;-79
2023/07/08 10:30:08;;;;;;;4.75;4.43;;;;;;;23.39;59.20;64426.63;5128883;28;20210;-79
2023/07/08 10:32:53;;;;;;;4.38;3.97;;;;;;;23.46;57.67;64429.28;5128983;28;20209;-82
2023/07/08 10:35:23;;;;;;;5.18;4.78;;;;;;;23.43;58.62;64426.16;5130310;28;20191;-76
2023/07/08 10:38:09;;;;;;;3.85;3.65;;;;;;;23.56;58.32;64439.22;5127687;28;20221;-79
2023/07/08 10:40:48;;;;;;;3.78;3.50;;;;;;;23.48;59.06;64430.84;5116496;28;20237;-78
2023/07/08 10:43:26;;;;;;;4.10;3.80;;;;;;;23.62;56.83;64448.63;5119378;28;20207;-81
2023/07/08 10:46:11;;;;;;;4.72;4.43;;;;;;;23.61;58.27;64447.03;5120202;28;20231;-76
2023/07/08 10:48:58;;;;;;;4.65;4.22;;;;;;;23.88;58.01;64475.81;5111975;28;20221;-77
2023/07/08 10:51:39;;;;;;;4.25;3.85;;;;;;;24.00;57.10;64482.69;5110360;28;20229;-78
2023/07/08 10:54:24;;;;;;;4.82;4.47;;;;;;;23.80;58.30;64464.84;5128973;28;20195;-78
2023/07/08 10:57:00;;;;;;;4.28;3.92;;;;;;;24.06;56.38;64493.66;5132023;28;20222;-81
2023/07/08 10:59:44;;;;;;;3.60;3.33;;;;;;;24.00;55.28;64485.28;5133003;28;20229;-77
2023/07/08 11:02:40;;;;;;;4.30;3.90;;;;;;;23.99;55.88;64484.75;5127947;28;20285;-78
2023/07/08 11:05:24;;;;;;;4.13;3.85;;;;;;;24.16;55.09;64504.63;5122532;28;20201;-77
2023/07/08 11:07:56;;;;;;;4.45;4.05;;;;;;;24.32;53.92;64521.38;5127280;28;20241;-77
2023/07/08 11:10:30;;;;;;;4.68;4.28;;;;;;;24.24;54.03;64509.88;5131021;28;20203;-81
2023/07/08 11:13:04;;;;;;;4.18;3.88;;;;;;;24.37;54.04;64524.00;5116441;28;20226;-81
2023/07/08 11:15:37;;;;;;;4.35;3.80;;;;;;;24.10;54.73;64493.16;5130451;28;20207;-79
2023/07/08 11:18:11;;;;;;;4.43;4.13;;;;;;;24.34;53.34;64518.28;5130572;28;20506;-79
2023/07/08 11:20:44;;;;;;;3.92;3.63;;;;;;;24.36;52.97;64522.44;5127935;28;20230;-78
2023/07/08 11:23:22;;;;;;;3.90;3.60;;;;;;;24.60;52.22;64550.69;5126787;28;20420;-78
2023/07/08 11:25:55;;;;;;;4.15;3.85;;;;;;;24.78;52.43;64566.97;5126951;28;20233;-79
2023/07/08 11:28:25;;;;;;;4.22;3.92;;;;;;;24.88;52.79;64577.44;5129289;28;20203;-79
2023/07/08 11:30:53;;;;;;;3.58;3.33;;;;;;;25.03;49.67;64595.75;5129731;28;20217;-78
2023/07/08 11:33:25;;;;;;;3.38;3.17;;;;;;;24.75;50.81;64561.22;5132995;28;20199;-80
2023/07/08 11:35:58;;;;;;;4.07;3.88;;;;;;;24.85;50.54;64576.38;5126773;28;20214;-76